createdAt,value
2022-07-30T00:01:46.134Z,17.55
2022-07-30T00:04:12.455Z,17.44
2022-07-30T00:06:38.795Z,17.46
2022-07-30T00:09:05.139Z,17.42
2022-07-30T00:11:32.861Z,17.42
2022-07-30T00:13:59.176Z,17.38
2022-07-30T00:16:25.667Z,17.33
2022-07-30T00:18:52.051Z,17.29
2022-07-30T00:21:20.245Z,17.35
2022-07-30T00:24:01.523Z,17.22
2022-07-30T00:26:28.553Z,17.16
2022-07-30T00:28:56.279Z,17.15
2022-07-30T00:31:22.775Z,17.04
2022-07-30T00:33:49.127Z,16.97
2022-07-30T00:36:15.444Z,16.97
2022-07-30T00:38:41.757Z,16.91
2022-07-30T00:41:08.092Z,16.85
2022-07-30T00:43:34.543Z,16.91
2022-07-30T00:46:02.321Z,16.86
2022-07-30T00:48:28.653Z,16.83
2022-07-30T00:50:55.064Z,16.79
2022-07-30T00:53:23.803Z,16.70
2022-07-30T00:55:50.131Z,16.76
2022-07-30T00:58:16.458Z,16.76
2022-07-30T01:00:42.898Z,16.73
2022-07-30T01:03:10.836Z,16.66
2022-07-30T01:05:37.153Z,16.56
2022-07-30T01:08:03.653Z,16.53
2022-07-30T01:10:29.984Z,16.48
2022-07-30T01:12:56.676Z,16.43
2022-07-30T01:15:22.987Z,16.39
2022-07-30T01:17:53.002Z,16.39
2022-07-30T01:20:24.323Z,16.33
2022-07-30T01:22:54.826Z,16.33
2022-07-30T01:25:27.498Z,16.35
2022-07-30T01:27:57.100Z,16.29
2022-07-30T01:30:25.235Z,16.24
2022-07-30T01:32:52.672Z,16.25
2022-07-30T01:35:20.348Z,16.25
2022-07-30T01:37:46.795Z,16.19
2022-07-30T01:40:13.810Z,16.14
2022-07-30T01:42:41.066Z,16.14
2022-07-30T01:45:09.373Z,16.13
2022-07-30T01:47:37.016Z,16.09
2022-07-30T01:50:04.643Z,16.05
2022-07-30T01:52:32.694Z,16.01
2022-07-30T01:55:00.319Z,15.96
2022-07-30T01:57:26.858Z,15.94
2022-07-30T01:59:57.684Z,15.89
2022-07-30T02:02:25.352Z,15.88
2022-07-30T02:04:51.700Z,15.83
2022-07-30T02:07:19.951Z,15.81
2022-07-30T02:09:51.687Z,15.80
2022-07-30T02:12:20.824Z,15.77
2022-07-30T02:14:49.300Z,15.76
2022-07-30T02:17:19.369Z,15.71
2022-07-30T02:19:49.371Z,15.70
2022-07-30T02:22:16.512Z,15.72
2022-07-30T02:24:43.773Z,15.68
2022-07-30T02:27:12.380Z,15.68
2022-07-30T02:29:38.719Z,15.61
2022-07-30T02:32:08.155Z,15.60
2022-07-30T02:34:36.499Z,15.59
2022-07-30T02:37:05.164Z,15.56
2022-07-30T02:39:33.500Z,15.53
2022-07-30T02:42:00.899Z,15.50
2022-07-30T02:44:29.258Z,15.48
2022-07-30T02:46:56.543Z,15.46
2022-07-30T02:49:23.751Z,15.44
2022-07-30T02:51:50.758Z,15.43
2022-07-30T02:54:19.340Z,15.41
2022-07-30T02:56:46.317Z,15.37
2022-07-30T02:59:13.480Z,15.34
2022-07-30T03:01:40.832Z,15.30
2022-07-30T03:04:07.684Z,15.31
2022-07-30T03:06:34.804Z,15.29
2022-07-30T03:09:02.199Z,15.29
2022-07-30T03:11:31.835Z,15.30
2022-07-30T03:13:58.227Z,15.35
2022-07-30T03:16:26.235Z,15.35
2022-07-30T03:18:53.329Z,15.39
2022-07-30T03:21:20.117Z,15.41
2022-07-30T03:23:47.804Z,15.45
2022-07-30T03:26:14.633Z,15.45
2022-07-30T03:28:42.826Z,15.46
2022-07-30T03:31:09.955Z,15.42
2022-07-30T03:33:39.211Z,15.39
2022-07-30T03:36:06.934Z,15.35
2022-07-30T03:38:33.828Z,15.33
2022-07-30T03:41:00.658Z,15.30
2022-07-30T03:43:33.020Z,15.26
2022-07-30T03:46:02.562Z,15.21
2022-07-30T03:48:29.290Z,15.17
2022-07-30T03:50:55.919Z,15.09
2022-07-30T03:53:22.449Z,15.02
2022-07-30T03:55:48.909Z,14.96
2022-07-30T03:58:15.311Z,14.92
2022-07-30T04:00:42.097Z,14.90
2022-07-30T04:03:10.373Z,14.84
2022-07-30T04:05:41.103Z,14.81
2022-07-30T04:08:07.945Z,14.79
2022-07-30T04:10:34.293Z,14.79
2022-07-30T04:13:00.632Z,14.78
2022-07-30T04:16:05.714Z,14.74
2022-07-30T04:18:15.496Z,14.72
2022-07-30T04:20:43.439Z,14.72
2022-07-30T04:23:10.536Z,14.70
2022-07-30T04:25:37.207Z,14.67
2022-07-30T04:28:04.517Z,14.67
2022-07-30T04:30:31.220Z,14.67
2022-07-30T04:32:57.567Z,14.69
2022-07-30T04:35:51.272Z,14.69
2022-07-30T04:38:14.687Z,14.70
2022-07-30T04:40:41.203Z,14.69
2022-07-30T04:43:07.880Z,14.70
2022-07-30T04:45:34.258Z,14.72
2022-07-30T04:48:00.599Z,14.76
2022-07-30T04:50:29.265Z,14.78
2022-07-30T04:52:56.268Z,14.80
2022-07-30T04:55:23.324Z,14.80
2022-07-30T04:57:50.391Z,14.84
2022-07-30T05:00:17.205Z,14.85
2022-07-30T05:02:44.294Z,14.86
2022-07-30T05:05:11.581Z,14.89
2022-07-30T05:07:39.510Z,14.92
2022-07-30T05:10:07.096Z,14.96
2022-07-30T05:12:33.482Z,15.01
2022-07-30T05:14:59.809Z,15.03
2022-07-30T05:17:26.162Z,15.09
2022-07-30T05:19:52.518Z,15.13
2022-07-30T05:22:18.932Z,15.17
2022-07-30T05:24:46.659Z,15.21
2022-07-30T05:27:12.998Z,15.23
2022-07-30T05:29:39.310Z,15.24
2022-07-30T05:32:07.915Z,15.26
2022-07-30T05:34:34.263Z,15.29
2022-07-30T05:37:00.694Z,15.33
2022-07-30T05:39:27.246Z,15.37
2022-07-30T05:41:55.052Z,15.40
2022-07-30T05:44:23.976Z,15.43
2022-07-30T05:46:51.044Z,15.53
2022-07-30T05:49:17.426Z,15.50
2022-07-30T05:51:43.840Z,15.61
2022-07-30T05:54:11.127Z,15.80
2022-07-30T05:56:37.463Z,15.71
2022-07-30T05:59:05.411Z,15.68
2022-07-30T06:01:31.785Z,15.76
2022-07-30T06:03:58.339Z,15.80
2022-07-30T06:06:24.658Z,15.77
2022-07-30T06:08:51.007Z,15.82
2022-07-30T06:11:17.358Z,15.86
2022-07-30T06:13:43.692Z,15.94
2022-07-30T06:16:11.431Z,16.06
2022-07-30T06:18:38.024Z,16.27
2022-07-30T06:21:05.189Z,16.28
2022-07-30T06:23:31.542Z,16.26
2022-07-30T06:25:57.919Z,16.36
2022-07-30T06:28:39.828Z,16.46
2022-07-30T06:31:06.358Z,16.57
2022-07-30T06:33:34.541Z,16.77
2022-07-30T06:36:01.101Z,16.95
2022-07-30T06:38:27.807Z,16.87
2022-07-30T06:40:54.599Z,17.08
2022-07-30T06:43:22.641Z,17.08
2022-07-30T06:45:49.014Z,17.02
2022-07-30T06:48:15.480Z,17.10
2022-07-30T06:50:43.201Z,17.14
2022-07-30T06:53:09.543Z,17.33
2022-07-30T06:55:35.930Z,17.30
2022-07-30T06:58:02.279Z,17.46
2022-07-30T07:00:28.660Z,17.51
2022-07-30T07:02:54.991Z,17.43
2022-07-30T07:05:21.396Z,17.66
2022-07-30T07:07:58.720Z,17.73
2022-07-30T07:10:26.033Z,17.70
2022-07-30T07:12:52.459Z,17.79
2022-07-30T07:15:19.002Z,17.68
2022-07-30T07:17:49.814Z,17.77
2022-07-30T07:20:16.174Z,17.69
2022-07-30T07:22:42.511Z,17.70
2022-07-30T07:25:13.002Z,17.93
2022-07-30T07:27:39.407Z,17.92
2022-07-30T07:30:06.492Z,18.28
2022-07-30T07:32:34.550Z,18.13
2022-07-30T07:35:00.891Z,18.23
2022-07-30T07:37:27.301Z,18.42
2022-07-30T07:39:53.658Z,18.40
2022-07-30T07:42:21.343Z,18.37
2022-07-30T07:44:47.681Z,18.44
2022-07-30T07:47:14.027Z,18.37
2022-07-30T07:49:40.456Z,18.41
2022-07-30T07:52:06.846Z,18.44
2022-07-30T07:54:33.455Z,18.46
2022-07-30T07:57:02.446Z,18.63
2022-07-30T07:59:39.706Z,18.61
2022-07-30T08:02:08.114Z,18.80
2022-07-30T08:04:34.863Z,18.78
2022-07-30T08:07:01.577Z,18.91
2022-07-30T08:09:43.744Z,18.96
2022-07-30T08:12:11.462Z,19.14
2022-07-30T08:14:39.375Z,19.08
2022-07-30T08:17:06.327Z,19.17
2022-07-30T08:19:33.392Z,19.15
2022-07-30T08:21:59.897Z,19.32
2022-07-30T08:24:26.321Z,19.50
2022-07-30T08:26:52.709Z,19.25
2022-07-30T08:29:19.080Z,19.17
2022-07-30T08:31:47.291Z,19.22
2022-07-30T08:34:13.864Z,19.21
2022-07-30T08:36:40.740Z,19.18
2022-07-30T08:39:08.917Z,19.22
2022-07-30T08:41:36.000Z,19.31
2022-07-30T08:44:02.848Z,19.47
2022-07-30T08:46:30.649Z,19.66
2022-07-30T08:48:59.329Z,19.68
2022-07-30T08:51:27.134Z,19.54
2022-07-30T08:53:53.711Z,19.46
2022-07-30T08:56:20.176Z,19.56
2022-07-30T08:58:47.383Z,19.70
2022-07-30T09:01:13.886Z,19.93
2022-07-30T09:03:44.152Z,19.97
2022-07-30T09:06:12.287Z,19.91
2022-07-30T09:08:38.842Z,19.98
2022-07-30T09:11:05.301Z,20.20
2022-07-30T09:13:32.443Z,20.17
2022-07-30T09:15:59.011Z,20.03
2022-07-30T09:18:29.716Z,20.15
2022-07-30T09:20:56.367Z,20.16
2022-07-30T09:23:24.087Z,20.25
2022-07-30T09:25:50.851Z,20.46
2022-07-30T09:28:27.148Z,20.74
2022-07-30T09:30:54.234Z,20.65
2022-07-30T09:33:31.132Z,20.66
2022-07-30T09:35:57.777Z,20.66
2022-07-30T09:38:25.555Z,20.65
2022-07-30T09:40:57.313Z,20.77
2022-07-30T09:43:27.626Z,20.98
2022-07-30T09:45:57.128Z,21.06
2022-07-30T09:48:25.125Z,21.12
2022-07-30T09:50:52.187Z,21.17
2022-07-30T09:53:19.208Z,21.31
2022-07-30T09:55:48.662Z,21.41
2022-07-30T09:58:26.765Z,21.62
2022-07-30T10:00:56.684Z,21.51
2022-07-30T10:03:33.998Z,21.50
2022-07-30T10:06:08.216Z,21.48
2022-07-30T10:08:39.238Z,21.51
2022-07-30T10:11:09.845Z,21.57
2022-07-30T10:13:36.455Z,21.61
2022-07-30T10:16:03.495Z,21.73
2022-07-30T10:18:30.903Z,21.88
2022-07-30T10:20:57.676Z,22.02
2022-07-30T10:23:27.270Z,21.94
2022-07-30T10:25:55.684Z,21.90
2022-07-30T10:28:24.060Z,22.01
2022-07-30T10:30:51.142Z,22.15
2022-07-30T10:33:36.265Z,22.29
2022-07-30T10:36:04.268Z,22.40
2022-07-30T10:38:33.514Z,22.53
2022-07-30T10:41:03.570Z,22.60
2022-07-30T10:43:44.343Z,22.63
2022-07-30T10:46:20.037Z,22.80
2022-07-30T10:48:49.358Z,23.03
2022-07-30T10:51:18.575Z,23.08
2022-07-30T10:54:00.672Z,23.06
2022-07-30T10:56:27.037Z,23.12
2022-07-30T10:59:03.995Z,23.25
2022-07-30T11:01:53.341Z,23.42
2022-07-30T11:04:29.550Z,23.33
2022-07-30T11:07:23.518Z,23.28
2022-07-30T11:10:08.807Z,23.41
2022-07-30T11:12:52.834Z,23.59
2022-07-30T11:15:20.854Z,23.76
2022-07-30T11:17:58.095Z,23.75
2022-07-30T11:20:24.621Z,23.79
2022-07-30T11:22:51.317Z,23.86
2022-07-30T11:25:52.003Z,23.80
2022-07-30T11:28:35.158Z,23.88
2022-07-30T11:31:10.091Z,23.83
2022-07-30T11:33:36.955Z,24.00
2022-07-30T11:36:07.688Z,24.05
2022-07-30T11:38:58.857Z,23.99
2022-07-30T11:41:31.768Z,23.82
2022-07-30T11:44:16.515Z,24.03
2022-07-30T11:46:48.903Z,24.15
2022-07-30T11:49:16.597Z,24.20
2022-07-30T11:51:43.573Z,24.14
2022-07-30T11:54:10.005Z,24.28
2022-07-30T11:56:36.615Z,24.37
2022-07-30T11:59:03.615Z,24.50
2022-07-30T12:01:30.662Z,24.72
2022-07-30T12:03:58.375Z,24.79
2022-07-30T12:06:24.759Z,24.82
2022-07-30T12:08:56.345Z,24.88
2022-07-30T12:11:25.175Z,24.87
2022-07-30T12:13:55.573Z,24.92
2022-07-30T12:16:21.994Z,24.81
2022-07-30T12:18:48.373Z,24.82
2022-07-30T12:21:16.386Z,25.02
2022-07-30T12:23:43.163Z,25.19
2022-07-30T12:26:09.520Z,25.33
2022-07-30T12:28:36.267Z,25.39
2022-07-30T12:31:03.006Z,25.43
2022-07-30T12:33:29.705Z,25.41
2022-07-30T12:35:57.064Z,25.53
2022-07-30T12:38:25.339Z,25.57
2022-07-30T12:40:52.657Z,25.51
2022-07-30T12:43:37.672Z,25.50
2022-07-30T12:46:04.011Z,25.42
2022-07-30T12:48:30.339Z,25.42
2022-07-30T12:51:05.504Z,25.23
2022-07-30T12:53:34.681Z,25.17
2022-07-30T12:56:09.991Z,25.35
2022-07-30T12:58:36.548Z,25.31
2022-07-30T13:01:02.914Z,25.38
2022-07-30T13:03:29.595Z,25.37
2022-07-30T13:05:57.291Z,25.17
2022-07-30T13:08:38.538Z,25.16
2022-07-30T13:11:06.284Z,25.28
2022-07-30T13:13:32.666Z,25.27
2022-07-30T13:16:00.193Z,25.34
2022-07-30T13:18:27.200Z,25.44
2022-07-30T13:20:53.523Z,25.38
2022-07-30T13:23:19.846Z,25.30
2022-07-30T13:25:46.187Z,25.35
2022-07-30T13:28:13.951Z,25.45
2022-07-30T13:30:40.392Z,25.54
2022-07-30T13:33:06.729Z,25.62
2022-07-30T13:35:33.116Z,25.78
2022-07-30T13:37:59.432Z,25.85
2022-07-30T13:40:25.793Z,25.91
2022-07-30T13:42:52.164Z,25.87
2022-07-30T13:45:19.899Z,25.85
2022-07-30T13:47:46.232Z,25.79
2022-07-30T13:50:12.583Z,25.78
2022-07-30T13:52:38.927Z,25.71
2022-07-30T13:55:05.669Z,25.78
2022-07-30T13:57:32.057Z,25.85
2022-07-30T13:59:58.416Z,26.00
2022-07-30T14:02:26.112Z,26.27
2022-07-30T14:04:54.488Z,26.19
2022-07-30T14:07:20.950Z,26.14
2022-07-30T14:09:50.325Z,26.09
2022-07-30T14:12:20.424Z,25.94
2022-07-30T14:14:46.758Z,25.98
2022-07-30T14:17:13.220Z,25.88
2022-07-30T14:19:40.914Z,25.82
2022-07-30T14:22:07.323Z,25.78
2022-07-30T14:24:33.674Z,25.84
2022-07-30T14:27:00.569Z,26.05
2022-07-30T14:29:27.248Z,26.10
2022-07-30T14:31:53.669Z,26.01
2022-07-30T14:34:20.083Z,26.08
2022-07-30T14:36:47.775Z,25.95
2022-07-30T14:39:14.113Z,26.00
2022-07-30T14:41:40.461Z,25.87
2022-07-30T14:44:06.793Z,25.89
2022-07-30T14:46:33.141Z,25.87
2022-07-30T14:48:59.540Z,25.94
2022-07-30T14:51:27.678Z,26.07
2022-07-30T14:53:57.206Z,25.98
2022-07-30T14:56:23.548Z,25.91
2022-07-30T14:58:49.899Z,25.83
2022-07-30T15:01:17.123Z,25.91
2022-07-30T15:03:43.964Z,26.05
2022-07-30T15:06:10.361Z,26.13
2022-07-30T15:08:36.720Z,26.16
2022-07-30T15:11:05.991Z,26.11
2022-07-30T15:13:34.178Z,26.13
2022-07-30T15:16:02.933Z,26.20
2022-07-30T15:18:29.336Z,26.19
2022-07-30T15:20:56.269Z,26.15
2022-07-30T15:23:22.607Z,26.14
2022-07-30T15:25:48.936Z,26.03
2022-07-30T15:28:16.637Z,26.17
2022-07-30T15:30:43.149Z,26.10
2022-07-30T15:33:09.474Z,26.11
2022-07-30T15:38:02.901Z,26.12
2022-07-30T15:40:29.383Z,26.11
2022-07-30T15:42:55.707Z,26.03
2022-07-30T15:45:23.410Z,26.09
2022-07-30T15:47:50.015Z,26.16
2022-07-30T15:50:16.421Z,26.39
2022-07-30T15:52:42.864Z,26.09
2022-07-30T15:55:09.578Z,26.08
2022-07-30T15:57:35.921Z,26.14
2022-07-30T16:00:02.373Z,26.08
2022-07-30T16:02:30.111Z,26.03
2022-07-30T16:04:56.454Z,25.95
2022-07-30T16:07:22.913Z,25.87
2022-07-30T16:09:49.285Z,25.81
2022-07-30T16:12:15.669Z,25.97
2022-07-30T16:14:41.982Z,25.67
2022-07-30T16:17:13.144Z,25.47
2022-07-30T16:19:41.276Z,25.34
2022-07-30T16:22:11.322Z,25.29
2022-07-30T16:24:37.642Z,25.25
2022-07-30T16:27:04.090Z,25.21
2022-07-30T16:29:30.433Z,25.19
2022-07-30T16:31:56.772Z,25.27
2022-07-30T16:34:23.152Z,25.29
2022-07-30T16:36:54.505Z,25.30
2022-07-30T16:39:20.830Z,25.29
2022-07-30T16:41:47.156Z,25.30
2022-07-30T16:44:13.529Z,25.33
2022-07-30T16:46:39.864Z,25.28
2022-07-30T16:49:06.293Z,25.32
2022-07-30T16:51:32.926Z,25.26
2022-07-30T16:54:00.625Z,25.25
2022-07-30T16:56:26.953Z,25.16
2022-07-30T16:58:53.266Z,25.19
2022-07-30T17:01:19.633Z,25.14
2022-07-30T17:03:46.013Z,25.03
2022-07-30T17:06:12.353Z,24.96
2022-07-30T17:08:38.698Z,24.93
2022-07-30T17:11:09.828Z,24.98
2022-07-30T17:13:38.287Z,24.95
2022-07-30T17:16:04.843Z,24.96
2022-07-30T17:18:31.187Z,24.93
2022-07-30T17:20:57.560Z,24.94
2022-07-30T17:23:23.902Z,24.91
2022-07-30T17:25:50.237Z,24.88
2022-07-30T17:28:17.965Z,24.85
2022-07-30T17:30:44.314Z,24.82
2022-07-30T17:33:10.684Z,24.84
2022-07-30T17:35:37.068Z,24.77
2022-07-30T17:38:03.604Z,24.72
2022-07-30T17:40:31.884Z,24.73
2022-07-30T17:42:58.464Z,24.73
2022-07-30T17:45:26.208Z,24.63
2022-07-30T17:47:52.542Z,24.58
2022-07-30T17:50:18.894Z,24.54
2022-07-30T17:52:45.257Z,24.48
2022-07-30T17:55:11.580Z,24.45
2022-07-30T17:57:38.102Z,24.41
2022-07-30T18:00:04.796Z,24.38
2022-07-30T18:02:32.599Z,24.32
2022-07-30T18:04:59.063Z,24.26
2022-07-30T18:07:25.399Z,24.22
2022-07-30T18:09:51.752Z,24.16
2022-07-30T18:12:18.148Z,24.11
2022-07-30T18:14:44.540Z,24.08
2022-07-30T18:17:14.220Z,24.03
2022-07-30T18:19:42.366Z,24.00
2022-07-30T18:22:08.759Z,23.95
2022-07-30T18:24:40.357Z,23.92
2022-07-30T18:27:08.080Z,23.88
2022-07-30T18:29:34.692Z,23.83
2022-07-30T18:32:01.400Z,23.80
2022-07-30T18:34:27.967Z,23.78
2022-07-30T18:36:55.704Z,23.73
2022-07-30T18:39:22.051Z,23.71
2022-07-30T18:41:48.389Z,23.69
2022-07-30T18:44:14.794Z,23.65
2022-07-30T18:46:41.113Z,23.61
2022-07-30T18:49:26.967Z,23.59
2022-07-30T18:51:53.807Z,23.57
2022-07-30T18:54:24.340Z,23.54
2022-07-30T18:56:50.694Z,23.50
2022-07-30T18:59:17.040Z,23.44
2022-07-30T19:01:43.423Z,23.41
2022-07-30T19:04:09.838Z,23.36
2022-07-30T19:06:36.185Z,23.31
2022-07-30T19:09:02.511Z,23.28
2022-07-30T19:11:30.235Z,23.24
2022-07-30T19:13:56.606Z,23.15
2022-07-30T19:16:22.960Z,23.07
2022-07-30T19:18:49.315Z,23.02
2022-07-30T19:21:15.666Z,22.96
2022-07-30T19:23:42.157Z,22.92
2022-07-30T19:26:08.605Z,22.91
2022-07-30T19:28:36.272Z,22.88
2022-07-30T19:31:03.010Z,22.84
2022-07-30T19:33:29.350Z,22.80
2022-07-30T19:35:55.676Z,22.76
2022-07-30T19:38:24.074Z,22.71
2022-07-30T19:40:50.679Z,22.69
2022-07-30T19:43:17.030Z,22.66
2022-07-30T19:45:47.360Z,22.63
2022-07-30T19:48:14.620Z,22.59
2022-07-30T19:50:40.967Z,22.56
2022-07-30T19:53:07.476Z,22.52
2022-07-30T19:55:35.718Z,22.52
2022-07-30T19:58:20.149Z,22.45
2022-07-30T20:00:49.756Z,22.40
2022-07-30T20:03:16.306Z,22.36
2022-07-30T20:05:58.383Z,22.33
2022-07-30T20:08:26.619Z,22.31
2022-07-30T20:10:52.980Z,22.26
2022-07-30T20:13:19.569Z,22.24
2022-07-30T20:15:45.963Z,22.22
2022-07-30T20:18:14.036Z,22.20
2022-07-30T20:20:41.251Z,22.18
2022-07-30T20:23:07.993Z,22.16
2022-07-30T20:25:37.300Z,22.12
2022-07-30T20:28:04.248Z,22.12
2022-07-30T20:30:30.969Z,22.09
2022-07-30T20:32:57.299Z,22.09
2022-07-30T20:35:26.304Z,22.08
2022-07-30T20:37:54.713Z,22.05
2022-07-30T20:40:22.196Z,22.05
2022-07-30T20:42:49.426Z,22.05
2022-07-30T20:45:15.808Z,22.03
2022-07-30T20:47:42.208Z,22.02
2022-07-30T20:50:14.208Z,22.01
2022-07-30T20:52:46.441Z,21.99
2022-07-30T20:55:16.090Z,21.97
2022-07-30T20:57:56.804Z,21.95
2022-07-30T21:00:27.676Z,21.93
2022-07-30T21:02:54.037Z,21.91
2022-07-30T21:05:20.524Z,21.89
2022-07-30T21:07:48.189Z,21.87
2022-07-30T21:10:19.239Z,21.84
2022-07-30T21:12:50.985Z,21.83
2022-07-30T21:15:23.419Z,21.79
2022-07-30T21:17:50.967Z,21.78
2022-07-30T21:20:17.512Z,21.77
2022-07-30T21:22:55.895Z,21.74
2022-07-30T21:25:23.482Z,21.72
2022-07-30T21:27:59.277Z,21.69
2022-07-30T21:30:26.192Z,21.64
2022-07-30T21:32:53.105Z,21.61
2022-07-30T21:35:19.682Z,21.55
2022-07-30T21:37:46.206Z,21.51
2022-07-30T21:40:14.554Z,21.46
2022-07-30T21:42:48.274Z,21.40
2022-07-30T21:45:15.130Z,21.34
2022-07-30T21:47:47.933Z,21.29
2022-07-30T21:50:14.770Z,21.24
2022-07-30T21:52:42.825Z,21.18
2022-07-30T21:55:09.455Z,21.14
2022-07-30T21:57:42.180Z,21.10
2022-07-30T22:00:12.376Z,21.06
2022-07-30T22:02:40.219Z,21.02
2022-07-30T22:05:19.806Z,20.98
2022-07-30T22:07:48.391Z,20.94
2022-07-30T22:10:15.041Z,20.92
2022-07-30T22:12:49.451Z,20.89
2022-07-30T22:15:17.480Z,20.87
2022-07-30T22:17:58.714Z,20.84
2022-07-30T22:20:27.444Z,20.82
2022-07-30T22:22:54.323Z,20.78
2022-07-30T22:25:21.600Z,20.76
2022-07-30T22:27:56.868Z,20.74
2022-07-30T22:30:24.067Z,20.72
2022-07-30T22:32:52.764Z,20.69
2022-07-30T22:35:20.654Z,20.68
2022-07-30T22:37:58.346Z,20.68
2022-07-30T22:40:24.848Z,20.66
2022-07-30T22:42:52.541Z,20.66
2022-07-30T22:45:43.543Z,20.65
2022-07-30T22:48:10.221Z,20.62
2022-07-30T22:50:39.937Z,20.61
2022-07-30T22:53:23.750Z,20.60
2022-07-30T22:55:53.187Z,20.55
2022-07-30T22:58:26.435Z,20.55
2022-07-30T23:00:53.209Z,20.54
2022-07-30T23:03:19.588Z,20.51
2022-07-30T23:05:56.179Z,20.48
2022-07-30T23:08:32.429Z,20.45
2022-07-30T23:10:58.782Z,20.42
2022-07-30T23:13:26.480Z,20.38
2022-07-30T23:15:52.813Z,20.37
2022-07-30T23:18:19.156Z,20.35
2022-07-30T23:20:45.484Z,20.33
2022-07-30T23:23:11.811Z,20.32
2022-07-30T23:25:38.893Z,20.31
2022-07-30T23:28:05.828Z,20.29
2022-07-30T23:30:34.236Z,20.30
2022-07-30T23:33:01.065Z,20.28
2022-07-30T23:35:27.421Z,20.23
2022-07-30T23:37:53.776Z,20.17
2022-07-30T23:40:20.142Z,20.10
2022-07-30T23:42:46.879Z,20.03
2022-07-30T23:45:13.258Z,20.00
2022-07-30T23:48:01.515Z,19.93
2022-07-30T23:50:27.647Z,19.90
2022-07-30T23:52:54.017Z,19.83
2022-07-30T23:55:20.642Z,19.78
2022-07-30T23:57:47.021Z,19.73
